• Join FlightAware (Why Join?)
  • Login
  • US Flag 
06:20PM EDT


 

Airport Tracker/Info


-or-


 

Live Flight TrackerFlight Track Log ✈ EJA215 ✈ 22-Jul-2013 ✈ KBED - KCOS

Flight Track Log - Related Links

Times and Time Zones

All times are in EDT time to prevent confusion due to time zone crossing. See the EJA215 flight status page for this flight to view local times or setup timezone preferences in your user account.

Time Position Orientation Groundspeed Altitude Reporting Facility
EDT Latitude Longitude Course Direction KTS MPH feet Rate Location/Type
07:09AM 42.4667 -71.3333 304° West 177 204 900  Level KA90
07:10AM 42.4833 -71.3667 304° West 203 234 1,700 1,380 Climbing KA90
07:12AM 42.5789 -71.3856 352° North 193 222 4,700 1,740 Climbing Boston Center
07:13AM 42.6578 -71.3447 21° North 259 298 7,200 2,400 Climbing Boston Center
07:14AM 42.7242 -71.3067 23° Northeast 282 325 9,600 2,280 Climbing Boston Center
07:15AM 42.7975 -71.3536 335° Northwest 257 296 11,800 2,100 Climbing Boston Center
07:16AM 42.8089 -71.4525 279° West 267 307 13,900 2,040 Climbing Boston Center
07:17AM 42.8203 -71.5739 277° West 284 327 15,900 1,560 Climbing Boston Center
07:18AM 42.8292 -71.6758 277° West 310 357 17,100 1,140 Climbing Boston Center
07:19AM 42.8425 -71.8114 278° West 322 371 18,200 1,020 Climbing Boston Center
07:20AM 42.8558 -71.9389 278° West 335 386 19,200 1,080 Climbing Boston Center
07:21AM 42.8667 -72.0689 277° West 346 398 20,400 1,080 Climbing Boston Center
07:22AM 42.8794 -72.2022 277° West 352 405 21,400 960 Climbing Boston Center
07:23AM 42.8964 -72.3239 281° West 352 405 22,400 900 Climbing Boston Center
07:24AM 42.9089 -72.4600 277° West 357 411 23,300 900 Climbing Boston Center
07:25AM 42.9381 -72.5933 287° West 362 417 24,300 1,080 Climbing Boston Center
07:26AM 42.9772 -72.7294 292° West 354 407 25,500 1,080 Climbing Boston Center
07:27AM 42.9872 -72.8714 276° West 364 419 26,500 900 Climbing Boston Center
07:28AM 42.9992 -73.0022 277° West 382 440 27,300 900 Climbing Boston Center
07:29AM 43.0089 -73.1442 275° West 388 447 28,300 900 Climbing Boston Center
07:30AM 43.0203 -73.2892 276° West 388 447 29,200 840 Climbing Boston Center
07:31AM 43.0233 -73.4283 272° West 388 447 30,000 840 Climbing Boston Center
07:32AM 43.0306 -73.5678 274° West 383 441 30,900 780 Climbing Boston Center
07:33AM 43.0392 -73.7183 275° West 390 449 31,600 540 Climbing Boston Center
07:34AM 43.0500 -73.8664 276° West 390 449 32,000 180 Climbing Boston Center
07:35AM 43.0583 -74.0228 274° West 402 463 32,000  Level Boston Center
07:36AM 43.0664 -74.1822 274° West 414 476 32,000  Level Boston Center
07:37AM 43.0764 -74.3444 275° West 426 490 32,000  Level Boston Center
07:38AM 43.0839 -74.5097 274° West 426 490 32,000  Level Boston Center
07:39AM 43.0933 -74.6750 275° West 436 502 32,000  Level Boston Center
07:40AM 43.0858 -74.8397 266° West 436 502 32,000  Level Boston Center
07:41AM 43.0553 -74.9947 255° West 431 496 32,000  Level Boston Center
07:42AM 43.0225 -75.1494 254° West 431 496 32,000  Level Boston Center
07:43AM 42.9917 -75.3072 255° West 431 496 32,000 480 Level Boston Center
07:44AM 42.9608 -75.4561 254° West 425 489 33,000 1,140 Climbing Boston Center
07:45AM 42.9317 -75.6022 255° West 413 475 34,300 1,200 Climbing Boston Center
07:46AM 42.9047 -75.7425 255° West 402 463 35,500 1,200 Climbing Boston Center
07:47AM 42.8781 -75.8717 254° West 379 436 36,800 1,200 Climbing Boston Center
07:50AM 42.8139 -76.1758 254° West 354 407 39,700 900 Climbing Cleveland Center
07:51AM 42.7853 -76.3025 253° West 349 402 40,000 120 Climbing Cleveland Center
07:52AM 42.7589 -76.4342 255° West 349 402 40,000  Level Cleveland Center
07:53AM 42.7261 -76.5722 252° West 369 425 40,000  Level Cleveland Center
07:54AM 42.6975 -76.7097 254° West 380 437 40,000  Level Cleveland Center
07:55AM 42.6650 -76.8614 254° West 380 437 40,000  Level Cleveland Center
07:56AM 42.6339 -77.0044 254° West 390 449 40,000  Level Cleveland Center
07:57AM 42.6008 -77.1444 252° West 390 449 40,000 300 Level Cleveland Center
07:58AM 42.5694 -77.2872 253° West 390 449 40,700 720 Climbing Cleveland Center
07:59AM 42.5400 -77.4211 253° West 383 441 41,500 720 Climbing Cleveland Center
08:00AM 42.5119 -77.5494 254° West 391 450 42,200 600 Climbing Cleveland Center
08:01AM 42.4803 -77.6917 253° West 380 437 42,800 360 Climbing Cleveland Center
08:02AM 42.4519 -77.8083 252° West 375 432 43,000 60 Climbing Cleveland Center
08:03AM 42.4217 -77.9419 253° West 375 432 43,000  Level Cleveland Center
08:04AM 42.3914 -78.0753 253° West 370 426 43,000  Level Cleveland Center
08:05AM 42.3608 -78.2142 253° West 375 432 43,000  Level Cleveland Center
08:06AM 42.3283 -78.3531 252° West 380 437 43,000  Level Cleveland Center
08:07AM 42.2975 -78.4919 253° West 386 444 43,000  Level Cleveland Center
08:08AM 42.2625 -78.6333 252° West 386 444 43,000  Level Cleveland Center
08:09AM 42.2292 -78.7717 252° West 391 450 43,000  Level Cleveland Center
08:10AM 42.1958 -78.9100 252° West 391 450 43,000  Level Cleveland Center
08:11AM 42.1603 -79.0539 252° West 391 450 43,000  Level Cleveland Center
08:12AM 42.1267 -79.1944 252° West 396 456 43,000  Level Cleveland Center
08:13AM 42.0928 -79.3353 252° West 396 456 43,000  Level Cleveland Center
08:14AM 42.0589 -79.4758 252° West 401 461 43,000  Level Cleveland Center
08:15AM 42.0225 -79.6189 251° West 401 461 43,000  Level Cleveland Center
08:16AM 41.9903 -79.7561 253° West 401 461 43,000  Level Cleveland Center
08:17AM 41.9539 -79.8992 251° West 401 461 43,000  Level Cleveland Center
08:18AM 41.9150 -80.0503 251° West 406 467 43,000  Level Cleveland Center
08:19AM 41.8781 -80.1900 250° West 401 461 43,000  Level Cleveland Center
08:20AM 41.8431 -80.3294 251° West 401 461 43,000  Level Cleveland Center
08:21AM 41.8119 -80.4550 252° West 407 468 43,000  Level Cleveland Center
08:22AM 41.7767 -80.5942 251° West 402 463 43,000  Level Cleveland Center
08:23AM 41.7389 -80.7306 250° West 402 463 43,000  Level Cleveland Center
08:24AM 41.7033 -80.8725 251° West 402 463 43,000  Level Cleveland Center
08:25AM 41.6694 -81.0056 251° West 397 457 43,000  Level Cleveland Center
08:26AM 41.6333 -81.1417 250° West 397 457 43,000  Level Cleveland Center
08:27AM 41.5972 -81.2800 251° West 392 451 43,000  Level Cleveland Center
08:28AM 41.5608 -81.4183 251° West 392 451 43,000  Level Cleveland Center
08:29AM 41.5222 -81.5678 251° West 392 451 43,000  Level Cleveland Center
08:30AM 41.4875 -81.7058 251° West 387 445 43,000  Level Cleveland Center
08:31AM 41.4528 -81.8353 250° West 400 460 43,000  Level Cleveland Center
08:32AM 41.4117 -81.9731 248° West 407 468 43,000  Level Cleveland Center
08:33AM 41.3744 -82.1022 249° West 401 461 43,000  Level Cleveland Center
08:34AM 41.3619 -82.2653 264° West 396 456 43,000  Level Cleveland Center
08:35AM 41.3722 -82.4067 276° West 385 443 43,000  Level Cleveland Center
08:36AM 41.3803 -82.5508 274° West 392 451 43,000  Level Cleveland Center
08:37AM 41.3881 -82.6975 274° West 397 457 43,000  Level Cleveland Center
08:38AM 41.3956 -82.8447 274° West 392 451 43,000  Level Cleveland Center
08:39AM 41.4053 -82.9861 275° West 392 451 43,000  Level Cleveland Center
08:40AM 41.4125 -83.1331 274° West 392 451 43,000  Level Cleveland Center
08:41AM 41.4139 -83.2578 271° West 392 451 43,000  Level Cleveland Center
08:42AM 41.4228 -83.4050 275° West 392 451 43,000  Level Cleveland Center
08:43AM 41.4294 -83.5494 274° West 392 451 43,000  Level Cleveland Center
08:44AM 41.4361 -83.6964 274° West 392 451 43,000  Level Cleveland Center
08:45AM 41.4444 -83.8408 274° West 397 457 43,000  Level Cleveland Center
08:45AM 41.4503 -83.9114 276° West 397 457 43,000  Level Chicago Center
08:46AM 41.4569 -84.0592 273° West 401 461 43,000  Level Chicago Center
08:47AM 41.4647 -84.2392 273° West 406 467 43,000  Level Chicago Center
08:48AM 41.4700 -84.3883 273° West 405 466 43,000  Level Chicago Center
08:49AM 41.4767 -84.5394 273° West 408 470 43,000  Level Chicago Center
08:50AM 41.4831 -84.6892 273° West 406 467 43,000  Level Chicago Center
08:51AM 41.4886 -84.8408 273° West 410 472 43,000  Level Chicago Center
08:52AM 41.4931 -84.9906 272° West 406 467 43,000  Level Chicago Center
08:53AM 41.4989 -85.1711 273° West 406 467 43,000  Level Chicago Center
08:54AM 41.5017 -85.3244 271° West 408 470 43,000  Level Chicago Center
08:56AM 41.5086 -85.4639 274° West 406 467 43,000  Level Chicago Center
08:57AM 41.5131 -85.6347 272° West 413 475 43,000  Level Chicago Center
08:58AM 41.5178 -85.7847 272° West 404 465 43,000  Level Chicago Center
08:59AM 41.5214 -85.9372 272° West 410 472 43,000  Level Chicago Center
09:00AM 41.5253 -86.0881 272° West 407 468 43,000  Level Chicago Center
09:01AM 41.5283 -86.2719 271° West 414 476 43,000  Level Chicago Center
09:02AM 41.5317 -86.4231 272° West 413 475 43,000  Level Chicago Center
09:03AM 41.5333 -86.5756 271° West 412 474 43,000  Level Chicago Center
09:04AM 41.5372 -86.7394 272° West 408 470 43,000  Level Chicago Center
09:05AM 41.5381 -86.8922 270° West 412 474 43,000  Level Chicago Center
09:06AM 41.5403 -87.0456 271° West 414 476 43,000  Level Chicago Center
09:07AM 41.5417 -87.1986 271° West 415 478 43,000  Level Chicago Center
09:08AM 41.5428 -87.3825 271° West 418 481 43,000  Level Chicago Center
09:09AM 41.5439 -87.5678 271° West 419 482 43,000  Level Chicago Center
09:10AM 41.5458 -87.7206 271° West 417 480 43,000  Level Chicago Center
09:11AM 41.5461 -87.8772 270° West 425 489 43,000  Level Chicago Center
09:12AM 41.5475 -88.0311 271° West 427 491 43,000  Level Chicago Center
09:13AM 41.5481 -88.2189 270° West 436 502 43,000  Level Chicago Center
09:14AM 41.5467 -88.3758 269° West 433 498 43,000  Level Chicago Center
09:15AM 41.5475 -88.5331 270° West 431 496 43,000  Level Chicago Center
09:16AM 41.5475 -88.6911 270° West 430 495 43,000  Level Chicago Center
09:17AM 41.5478 -88.8803 270° West 429 494 43,000  Level Chicago Center
09:19AM 41.5481 -89.0378 270° West 429 494 43,000  Level Chicago Center
09:20AM 41.5478 -89.1947 270° West 426 490 43,000  Level Chicago Center
09:21AM 41.5492 -89.3514 271° West 425 489 43,000  Level Chicago Center
09:22AM 41.5483 -89.5089 270° West 427 491 43,000  Level Chicago Center
09:23AM 41.5431 -89.6758 268° West 420 483 43,000  Level Chicago Center
09:24AM 41.5272 -89.8328 262° West 427 491 43,000  Level Chicago Center
09:25AM 41.5086 -90.0200 262° West 426 490 43,000  Level Chicago Center
09:26AM 41.4914 -90.1781 262° West 430 495 43,000  Level Chicago Center
09:27AM 41.4747 -90.3356 262° West 431 496 43,000  Level Chicago Center
09:28AM 41.4569 -90.4922 261° West 430 495 43,000  Level Chicago Center
09:29AM 41.4386 -90.6522 261° West 437 503 43,000  Level Chicago Center
09:30AM 41.4203 -90.8092 261° West 432 497 43,000  Level Chicago Center
09:31AM 41.3978 -90.9997 261° West 435 501 43,000  Level Chicago Center
09:32AM 41.3803 -91.1567 262° West 431 496 43,000  Level Chicago Center
09:33AM 41.3608 -91.3131 261° West 430 495 43,000  Level Chicago Center
09:34AM 41.3439 -91.4589 261° West 427 491 43,000  Level Chicago Center
09:35AM 41.3222 -91.6439 261° West 425 489 43,000  Level Chicago Center
09:36AM 41.3031 -91.7978 261° West 425 489 43,000  Level Chicago Center
09:37AM 41.2844 -91.9519 261° West 425 489 43,000  Level Chicago Center
09:38AM 41.2647 -92.1064 260° West 427 491 43,000  Level Chicago Center
09:39AM 41.2456 -92.2606 261° West 425 489 43,000  Level Chicago Center
09:40AM 41.2211 -92.4475 260° West 426 490 43,000  Level Chicago Center
09:41AM 41.2019 -92.5997 261° West 424 488 43,000  Level Chicago Center
09:44AM 41.1489 -92.9983 260° West 425 489 43,000  Level Minneapolis Center
09:45AM 41.1286 -93.1528 260° West 427 491 43,000  Level Minneapolis Center
09:46AM 41.1042 -93.3328 260° West 425 489 43,000  Level Minneapolis Center
09:47AM 41.0833 -93.4875 260° West 429 494 43,000  Level Minneapolis Center
09:48AM 41.0625 -93.6417 260° West 430 495 43,000  Level Minneapolis Center
09:49AM 41.0400 -93.7972 259° West 433 498 43,000  Level Minneapolis Center
09:50AM 41.0172 -93.9519 259° West 432 497 43,000  Level Minneapolis Center
09:51AM 40.9919 -94.1378 260° West 433 498 43,000  Level Minneapolis Center
09:52AM 40.9661 -94.2931 258° West 433 498 43,000  Level Minneapolis Center
09:53AM 40.9425 -94.4494 259° West 435 501 43,000  Level Minneapolis Center
09:54AM 40.9211 -94.6000 259° West 433 498 43,000  Level Minneapolis Center
09:55AM 40.8928 -94.7869 259° West 430 495 43,000  Level Minneapolis Center
09:56AM 40.8703 -94.9400 259° West 427 491 43,000  Level Minneapolis Center
09:57AM 40.8453 -95.0958 258° West 428 493 43,000  Level Minneapolis Center
09:58AM 40.8203 -95.2550 258° West 436 502 43,000  Level Minneapolis Center
09:59AM 40.7964 -95.4103 259° West 434 499 43,000  Level Minneapolis Center
10:00AM 40.7722 -95.5656 258° West 432 497 43,000  Level Minneapolis Center
10:01AM 40.7486 -95.7175 258° West 426 490 43,000  Level Minneapolis Center
10:03AM 40.7183 -95.9047 258° West 431 496 43,000  Level Minneapolis Center
10:04AM 40.6931 -96.0608 258° West 432 497 43,000  Level Minneapolis Center
10:05AM 40.6678 -96.2169 258° West 434 499 43,000  Level Minneapolis Center
10:06AM 40.6417 -96.3744 258° West 437 503 43,000  Level Minneapolis Center
10:07AM 40.6158 -96.5300 258° West 435 501 43,000  Level Minneapolis Center
10:08AM 40.5900 -96.6833 258° West 431 496 43,000  Level Minneapolis Center
10:09AM 40.5631 -96.8375 257° West 430 495 43,000  Level Minneapolis Center
10:10AM 40.5322 -97.0214 258° West 429 494 43,000  Level Minneapolis Center
10:11AM 40.5058 -97.1728 257° West 428 493 43,000  Level Minneapolis Center
10:12AM 40.4800 -97.3244 257° West 425 489 43,000  Level Minneapolis Center
10:13AM 40.4539 -97.4703 257° West 426 490 43,000  Level Minneapolis Center
10:14AM 40.4281 -97.6203 257° West 423 487 43,000  Level Minneapolis Center
10:15AM 40.4006 -97.7686 256° West 420 483 43,000  Level Minneapolis Center
10:16AM 40.3692 -97.9483 257° West 419 482 43,000  Level Minneapolis Center
10:17AM 40.3419 -98.0961 256° West 418 481 43,000  Level Minneapolis Center
10:18AM 40.3158 -98.2447 257° West 417 480 43,000  Level Minneapolis Center
10:19AM 40.2875 -98.3919 256° West 416 479 43,000  Level Minneapolis Center
10:20AM 40.2606 -98.5406 257° West 417 480 43,000  Level Minneapolis Center
10:21AM 40.2328 -98.6903 256° West 420 483 43,000  Level Minneapolis Center
10:22AM 40.2044 -98.8408 256° West 422 486 43,000  Level Minneapolis Center
10:23AM 40.1706 -99.0233 256° West 425 489 43,000  Level Minneapolis Center
10:24AM 40.1322 -99.1722 251° West 429 494 43,000  Level Minneapolis Center
10:25AM 40.0908 -99.3181 250° West 429 494 43,100  Climbing Minneapolis Center
10:26AM 40.0481 -99.4636 249° West 430 495 43,100 -60 Level Minneapolis Center
10:27AM 40.0056 -99.6111 249° West 432 497 43,000 -60 Descending Minneapolis Center
10:28AM 39.9622 -99.7611 249° West 438 504 43,000  Level Minneapolis Center
10:29AM 39.9192 -99.9125 250° West 443 510 43,000  Level Minneapolis Center
10:30AM 39.8689 -100.0919 250° West 442 509 43,000  Level Minneapolis Center
10:31AM 39.8267 -100.2389 250° West 438 504 43,000  Level Minneapolis Center
10:32AM 39.7836 -100.3836 249° West 434 499 43,000  Level Minneapolis Center
10:34AM 39.7247 -100.5772 248° West 430 495 43,000  Level Denver Center
10:35AM 39.6828 -100.7172 249° West 432 497 43,000  Level Denver Center
10:36AM 39.6344 -100.8767 249° West 426 490 43,100  Climbing Denver Center
10:37AM 39.5936 -101.0161 249° West 429 494 43,000 -60 Descending Denver Center
10:38AM 39.5519 -101.1528 248° West 427 491 43,000 -60 Level Denver Center
10:39AM 39.5036 -101.3136 249° West 429 494 42,900 -1,080 Descending Denver Center
10:40AM 39.4628 -101.4478 249° West 420 483 40,800 -2,520 Descending Denver Center
10:41AM 39.4125 -101.6119 248° West 436 502 37,700 -2,760 Descending Denver Center
10:42AM 39.3694 -101.7533 249° West 439 505 35,100 -2,760 Descending Denver Center
10:43AM 39.3228 -101.9164 250° West 423 487 32,100 -2,760 Descending Denver Center
10:44AM 39.2831 -102.0558 250° West 432 497 29,500 -1,980 Descending Denver Center
10:45AM 39.2347 -102.2214 249° West 442 509 28,100 -720 Descending Denver Center
10:46AM 39.1939 -102.3617 249° West 438 504 28,100 -60 Level Denver Center
10:47AM 39.1458 -102.5253 249° West 437 503 28,000 -60 Descending Denver Center
10:48AM 39.1117 -102.6400 249° West 433 498 28,000  Level Denver Center
10:49AM 39.0719 -102.8153 254° West 432 497 28,000  Level Denver Center
10:50AM 39.0475 -102.9633 258° West 426 490 28,000 -300 Level Denver Center
10:51AM 39.0225 -103.1114 258° West 424 488 27,400 -1,020 Descending Denver Center
10:52AM 38.9972 -103.2683 258° West 442 509 26,000 -1,860 Descending Denver Center
10:53AM 38.9647 -103.4583 258° West 453 521 23,600 -2,520 Descending Denver Center
10:54AM 38.9386 -103.6153 258° West 450 518 20,900 -2,520 Descending Denver Center
10:56AM 38.9117 -103.7714 258° West 447 514 18,400 -2,580 Descending Denver Center
10:57AM 38.8831 -103.9306 257° West 453 521 15,600 -2,160 Descending Denver Center
10:58AM 38.8769 -104.0858 267° West 443 510 14,000 -780 Descending Denver Center
10:59AM 38.8981 -104.2519 279° West 427 491 14,000  Level Denver Center
11:00AM 38.8803 -104.3919 261° West 421 484 14,000 -360 Level Denver Center
11:01AM 38.7961 -104.5031 226° Southwest 392 451 13,300 -900 Descending Denver Center
11:02AM 38.7306 -104.5742 220° Southwest 340 391 12,200 -780 Descending Denver Center
11:03AM 38.6892 -104.6561 237° Southwest 259 298 11,700 -840 Descending Denver Center
11:04AM 38.7097 -104.7075 297° West 193 222 10,500 -2,040 Descending Denver Center
11:05AM 38.7575 -104.7161 352° North 160 184 7,500 -2,100 Descending Denver Center
11:06AM 38.8014 -104.7147 North 158 182 6,200 -1,260 Descending Denver Center